sensor_id;sensor_type;location;lat;lon;timestamp;pressure;altitude;pressure_sealevel;temperature;humidity
40872;BME280;26591;43.264;26.940;2023-05-11T00:02:05;99520.69;;;9.85;70.99
40872;BME280;26591;43.264;26.940;2023-05-11T00:04:32;99518.78;;;9.59;71.93
40872;BME280;26591;43.264;26.940;2023-05-11T00:06:57;99520.00;;;9.65;72.36
40872;BME280;26591;43.264;26.940;2023-05-11T00:09:23;99530.81;;;9.71;71.99
40872;BME280;26591;43.264;26.940;2023-05-11T00:11:51;99534.81;;;9.75;71.85
40872;BME280;26591;43.264;26.940;2023-05-11T00:14:16;99532.72;;;9.79;71.42
40872;BME280;26591;43.264;26.940;2023-05-11T00:16:42;99530.66;;;9.73;71.52
40872;BME280;26591;43.264;26.940;2023-05-11T00:19:07;99529.84;;;9.72;70.98
40872;BME280;26591;43.264;26.940;2023-05-11T00:21:33;99529.13;;;9.70;71.79
40872;BME280;26591;43.264;26.940;2023-05-11T00:23:58;99530.66;;;9.73;71.81
40872;BME280;26591;43.264;26.940;2023-05-11T00:26:24;99530.06;;;9.79;71.33
40872;BME280;26591;43.264;26.940;2023-05-11T00:28:51;99526.34;;;9.72;70.86
40872;BME280;26591;43.264;26.940;2023-05-11T00:31:16;99527.19;;;9.72;71.02
40872;BME280;26591;43.264;26.940;2023-05-11T00:33:42;99531.47;;;9.55;71.68
40872;BME280;26591;43.264;26.940;2023-05-11T00:36:07;99525.63;;;9.52;70.79
40872;BME280;26591;43.264;26.940;2023-05-11T00:38:33;99524.81;;;9.51;71.50
40872;BME280;26591;43.264;26.940;2023-05-11T00:41:02;99529.94;;;9.53;71.30
40872;BME280;26591;43.264;26.940;2023-05-11T00:43:28;99521.25;;;9.60;70.84
40872;BME280;26591;43.264;26.940;2023-05-11T00:45:53;99528.41;;;9.50;71.30
40872;BME280;26591;43.264;26.940;2023-05-11T00:48:19;99530.78;;;9.53;70.94
40872;BME280;26591;43.264;26.940;2023-05-11T00:50:45;99533.31;;;9.45;71.57
40872;BME280;26591;43.264;26.940;2023-05-11T00:53:10;99533.75;;;9.40;71.81
40872;BME280;26591;43.264;26.940;2023-05-11T00:55:37;99526.28;;;9.36;71.45
40872;BME280;26591;43.264;26.940;2023-05-11T00:58:02;99534.91;;;9.28;71.45
40872;BME280;26591;43.264;26.940;2023-05-11T01:00:30;99521.88;;;9.26;71.82
40872;BME280;26591;43.264;26.940;2023-05-11T01:02:56;99523.75;;;9.34;71.12
40872;BME280;26591;43.264;26.940;2023-05-11T01:05:25;99528.94;;;9.26;71.39
40872;BME280;26591;43.264;26.940;2023-05-11T01:08:03;99530.16;;;9.31;71.19
40872;BME280;26591;43.264;26.940;2023-05-11T01:10:33;99528.91;;;9.36;72.11
40872;BME280;26591;43.264;26.940;2023-05-11T01:13:21;99528.50;;;9.30;71.96
40872;BME280;26591;43.264;26.940;2023-05-11T01:15:52;99529.59;;;9.38;71.38
40872;BME280;26591;43.264;26.940;2023-05-11T01:20:54;99525.28;;;9.37;70.74
40872;BME280;26591;43.264;26.940;2023-05-11T01:31:54;99528.22;;;9.34;71.67
40872;BME280;26591;43.264;26.940;2023-05-11T01:34:22;99533.50;;;9.34;71.31
40872;BME280;26591;43.264;26.940;2023-05-11T01:37:03;99526.47;;;9.52;71.02
40872;BME280;26591;43.264;26.940;2023-05-11T01:39:44;99528.13;;;9.53;70.87
40872;BME280;26591;43.264;26.940;2023-05-11T01:42:13;99527.66;;;9.40;71.40
40872;BME280;26591;43.264;26.940;2023-05-11T01:44:41;99525.19;;;9.28;71.99
40872;BME280;26591;43.264;26.940;2023-05-11T01:47:10;99535.44;;;9.31;71.87
40872;BME280;26591;43.264;26.940;2023-05-11T01:49:39;99525.56;;;9.34;71.74
40872;BME280;26591;43.264;26.940;2023-05-11T01:52:08;99521.03;;;9.26;72.19
40872;BME280;26591;43.264;26.940;2023-05-11T01:54:35;99526.34;;;9.44;72.12
40872;BME280;26591;43.264;26.940;2023-05-11T01:57:03;99521.97;;;9.35;71.80
40872;BME280;26591;43.264;26.940;2023-05-11T01:59:30;99531.97;;;9.41;71.32
40872;BME280;26591;43.264;26.940;2023-05-11T02:01:57;99524.41;;;9.08;72.03
40872;BME280;26591;43.264;26.940;2023-05-11T02:04:24;99517.31;;;9.19;72.05
40872;BME280;26591;43.264;26.940;2023-05-11T02:06:52;99527.88;;;9.19;72.54
40872;BME280;26591;43.264;26.940;2023-05-11T02:09:20;99522.47;;;9.10;72.08
40872;BME280;26591;43.264;26.940;2023-05-11T02:11:47;99534.91;;;9.28;72.28
40872;BME280;26591;43.264;26.940;2023-05-11T02:14:14;99529.47;;;9.29;72.70
40872;BME280;26591;43.264;26.940;2023-05-11T02:16:43;99524.88;;;9.31;72.35
40872;BME280;26591;43.264;26.940;2023-05-11T02:19:12;99517.84;;;9.22;72.22
40872;BME280;26591;43.264;26.940;2023-05-11T02:21:40;99525.31;;;8.99;72.90
40872;BME280;26591;43.264;26.940;2023-05-11T02:24:07;99519.84;;;9.10;73.13
40872;BME280;26591;43.264;26.940;2023-05-11T02:26:33;99513.16;;;9.06;73.24
40872;BME280;26591;43.264;26.940;2023-05-11T02:28:58;99520.28;;;9.06;73.52
40872;BME280;26591;43.264;26.940;2023-05-11T02:31:29;99516.06;;;9.13;72.91
40872;BME280;26591;43.264;26.940;2023-05-11T02:34:05;99523.69;;;9.16;72.85
40872;BME280;26591;43.264;26.940;2023-05-11T02:36:32;99516.06;;;9.13;72.16
40872;BME280;26591;43.264;26.940;2023-05-11T02:39:04;99519.41;;;9.15;72.29
40872;BME280;26591;43.264;26.940;2023-05-11T02:41:30;99510.13;;;9.11;72.95
40872;BME280;26591;43.264;26.940;2023-05-11T02:44:00;99523.66;;;9.26;72.55
40872;BME280;26591;43.264;26.940;2023-05-11T02:46:29;99523.50;;;9.27;72.74
40872;BME280;26591;43.264;26.940;2023-05-11T02:48:58;99518.78;;;9.31;72.30
40872;BME280;26591;43.264;26.940;2023-05-11T02:51:32;99530.81;;;9.43;71.44
40872;BME280;26591;43.264;26.940;2023-05-11T02:54:00;99521.91;;;9.44;71.27
40872;BME280;26591;43.264;26.940;2023-05-11T02:56:28;99529.09;;;9.24;71.68
40872;BME280;26591;43.264;26.940;2023-05-11T02:58:53;99528.97;;;9.16;71.67
40872;BME280;26591;43.264;26.940;2023-05-11T03:01:19;99530.88;;;9.34;72.20
40872;BME280;26591;43.264;26.940;2023-05-11T03:06:48;99536.00;;;9.35;71.93
40872;BME280;26591;43.264;26.940;2023-05-11T03:09:14;99536.09;;;9.71;72.07
40872;BME280;26591;43.264;26.940;2023-05-11T03:11:40;99537.94;;;10.07;71.85
40872;BME280;26591;43.264;26.940;2023-05-11T03:14:07;99541.78;;;10.67;71.35
40872;BME280;26591;43.264;26.940;2023-05-11T03:16:33;99544.31;;;11.03;72.18
40872;BME280;26591;43.264;26.940;2023-05-11T03:18:59;99549.50;;;11.39;71.53
40872;BME280;26591;43.264;26.940;2023-05-11T03:21:26;99549.75;;;11.71;69.63
40872;BME280;26591;43.264;26.940;2023-05-11T03:23:51;99549.44;;;12.17;67.87
40872;BME280;26591;43.264;26.940;2023-05-11T03:26:18;99542.78;;;12.54;68.19
40872;BME280;26591;43.264;26.940;2023-05-11T03:28:46;99545.25;;;12.89;65.38
40872;BME280;26591;43.264;26.940;2023-05-11T03:31:12;99553.84;;;13.16;63.71
40872;BME280;26591;43.264;26.940;2023-05-11T03:33:37;99543.25;;;13.55;61.92
40872;BME280;26591;43.264;26.940;2023-05-11T03:36:04;99551.31;;;14.02;61.25
40872;BME280;26591;43.264;26.940;2023-05-11T03:38:30;99541.91;;;14.14;58.32
40872;BME280;26591;43.264;26.940;2023-05-11T03:40:57;99547.63;;;14.11;57.72
40872;BME280;26591;43.264;26.940;2023-05-11T03:43:25;99542.03;;;13.66;58.09
40872;BME280;26591;43.264;26.940;2023-05-11T03:45:52;99535.22;;;13.24;58.95
40872;BME280;26591;43.264;26.940;2023-05-11T03:48:18;99544.22;;;13.06;59.95
40872;BME280;26591;43.264;26.940;2023-05-11T03:50:45;99556.66;;;13.14;61.35
40872;BME280;26591;43.264;26.940;2023-05-11T03:53:12;99555.22;;;13.60;61.36
40872;BME280;26591;43.264;26.940;2023-05-11T03:55:38;99559.09;;;14.35;59.91
40872;BME280;26591;43.264;26.940;2023-05-11T03:58:07;99562.84;;;14.64;59.57
40872;BME280;26591;43.264;26.940;2023-05-11T04:00:40;99559.28;;;15.25;57.24
40872;BME280;26591;43.264;26.940;2023-05-11T04:03:07;99566.47;;;15.39;55.82
40872;BME280;26591;43.264;26.940;2023-05-11T04:05:33;99568.09;;;15.85;55.16
40872;BME280;26591;43.264;26.940;2023-05-11T04:08:00;99566.06;;;16.46;54.12
40872;BME280;26591;43.264;26.940;2023-05-11T04:10:26;99568.16;;;17.01;52.26
40872;BME280;26591;43.264;26.940;2023-05-11T04:12:53;99573.38;;;17.51;51.49
40872;BME280;26591;43.264;26.940;2023-05-11T04:15:19;99572.44;;;17.72;49.98
40872;BME280;26591;43.264;26.940;2023-05-11T04:17:45;99573.84;;;18.10;49.14
40872;BME280;26591;43.264;26.940;2023-05-11T04:20:10;99571.38;;;18.08;48.55
40872;BME280;26591;43.264;26.940;2023-05-11T04:22:36;99574.88;;;17.67;48.57
40872;BME280;26591;43.264;26.940;2023-05-11T04:25:01;99570.44;;;17.39;48.56
40872;BME280;26591;43.264;26.940;2023-05-11T04:27:27;99577.06;;;16.86;49.69
40872;BME280;26591;43.264;26.940;2023-05-11T04:29:53;99576.22;;;16.36;51.05
40872;BME280;26591;43.264;26.940;2023-05-11T04:32:18;99579.69;;;15.93;51.69
40872;BME280;26591;43.264;26.940;2023-05-11T04:34:44;99577.47;;;15.66;52.96
40872;BME280;26591;43.264;26.940;2023-05-11T04:37:09;99578.22;;;15.15;53.70
40872;BME280;26591;43.264;26.940;2023-05-11T04:39:35;99576.28;;;15.09;53.94
40872;BME280;26591;43.264;26.940;2023-05-11T04:42:00;99582.44;;;15.09;55.55
40872;BME280;26591;43.264;26.940;2023-05-11T04:44:26;99590.81;;;15.51;55.47
40872;BME280;26591;43.264;26.940;2023-05-11T04:46:55;99590.97;;;16.31;53.76
40872;BME280;26591;43.264;26.940;2023-05-11T04:49:21;99589.22;;;16.89;52.15
40872;BME280;26591;43.264;26.940;2023-05-11T04:51:47;99589.84;;;17.54;50.78
40872;BME280;26591;43.264;26.940;2023-05-11T04:54:12;99588.31;;;18.36;49.27
40872;BME280;26591;43.264;26.940;2023-05-11T04:56:41;99592.69;;;19.04;47.77
40872;BME280;26591;43.264;26.940;2023-05-11T04:59:06;99597.50;;;19.67;46.11
40872;BME280;26591;43.264;26.940;2023-05-11T05:01:32;99598.72;;;19.72;45.33
40872;BME280;26591;43.264;26.940;2023-05-11T05:03:58;99603.16;;;20.37;44.53
40872;BME280;26591;43.264;26.940;2023-05-11T05:06:23;99597.13;;;20.73;43.62
40872;BME280;26591;43.264;26.940;2023-05-11T05:08:48;99597.47;;;20.58;43.65
40872;BME280;26591;43.264;26.940;2023-05-11T05:11:14;99607.16;;;20.27;43.80
40872;BME280;26591;43.264;26.940;2023-05-11T05:13:39;99602.75;;;19.35;45.76
40872;BME280;26591;43.264;26.940;2023-05-11T05:16:05;99601.31;;;18.79;46.27
40872;BME280;26591;43.264;26.940;2023-05-11T05:18:30;99601.13;;;18.67;46.57
40872;BME280;26591;43.264;26.940;2023-05-11T05:20:56;99611.69;;;18.96;46.72
40872;BME280;26591;43.264;26.940;2023-05-11T05:23:21;99607.66;;;18.31;46.49
40872;BME280;26591;43.264;26.940;2023-05-11T05:25:47;99599.56;;;18.04;47.32
40872;BME280;26591;43.264;26.940;2023-05-11T05:28:12;99609.38;;;18.92;46.28
40872;BME280;26591;43.264;26.940;2023-05-11T05:30:38;99603.94;;;19.53;46.58
40872;BME280;26591;43.264;26.940;2023-05-11T05:33:05;99603.53;;;19.43;46.96
40872;BME280;26591;43.264;26.940;2023-05-11T05:35:30;99607.03;;;18.29;49.12
40872;BME280;26591;43.264;26.940;2023-05-11T05:37:56;99613.38;;;16.74;53.87
40872;BME280;26591;43.264;26.940;2023-05-11T05:40:21;99606.47;;;16.86;51.95
40872;BME280;26591;43.264;26.940;2023-05-11T05:42:47;99604.06;;;16.70;51.97
40872;BME280;26591;43.264;26.940;2023-05-11T05:45:12;99603.00;;;17.14;49.91
40872;BME280;26591;43.264;26.940;2023-05-11T05:47:38;99612.16;;;17.68;48.92
40872;BME280;26591;43.264;26.940;2023-05-11T05:50:05;99616.84;;;17.60;49.20
40872;BME280;26591;43.264;26.940;2023-05-11T05:52:31;99626.78;;;16.37;51.52
40872;BME280;26591;43.264;26.940;2023-05-11T05:54:56;99630.22;;;16.53;52.38
40872;BME280;26591;43.264;26.940;2023-05-11T05:57:22;99623.53;;;16.85;51.83
40872;BME280;26591;43.264;26.940;2023-05-11T05:59:47;99619.25;;;16.91;52.23
40872;BME280;26591;43.264;26.940;2023-05-11T06:02:12;99619.41;;;16.83;51.42
40872;BME280;26591;43.264;26.940;2023-05-11T06:04:38;99628.66;;;16.87;50.43
40872;BME280;26591;43.264;26.940;2023-05-11T06:07:04;99628.06;;;16.05;52.43
40872;BME280;26591;43.264;26.940;2023-05-11T06:09:29;99629.66;;;17.01;51.27
40872;BME280;26591;43.264;26.940;2023-05-11T06:11:55;99625.66;;;17.18;51.15
40872;BME280;26591;43.264;26.940;2023-05-11T06:14:21;99629.13;;;16.47;52.45
40872;BME280;26591;43.264;26.940;2023-05-11T06:16:47;99620.13;;;17.20;51.67
40872;BME280;26591;43.264;26.940;2023-05-11T06:19:13;99629.31;;;18.29;49.32
40872;BME280;26591;43.264;26.940;2023-05-11T06:21:39;99620.00;;;18.19;49.11
40872;BME280;26591;43.264;26.940;2023-05-11T06:24:07;99631.59;;;17.84;49.13
40872;BME280;26591;43.264;26.940;2023-05-11T06:26:32;99621.00;;;17.69;49.89
40872;BME280;26591;43.264;26.940;2023-05-11T06:28:58;99621.44;;;17.31;51.02
40872;BME280;26591;43.264;26.940;2023-05-11T06:31:24;99617.94;;;16.00;53.98
40872;BME280;26591;43.264;26.940;2023-05-11T06:33:49;99627.97;;;15.68;55.61
40872;BME280;26591;43.264;26.940;2023-05-11T06:36:15;99619.03;;;15.76;54.96
40872;BME280;26591;43.264;26.940;2023-05-11T06:38:40;99621.72;;;14.77;56.88
40872;BME280;26591;43.264;26.940;2023-05-11T06:41:06;99623.88;;;13.96;58.77
40872;BME280;26591;43.264;26.940;2023-05-11T06:43:34;99627.94;;;12.69;62.06
40872;BME280;26591;43.264;26.940;2023-05-11T06:45:59;99627.06;;;13.43;61.92
40872;BME280;26591;43.264;26.940;2023-05-11T06:48:25;99626.25;;;13.26;61.69
40872;BME280;26591;43.264;26.940;2023-05-11T06:50:54;99621.28;;;13.79;61.01
40872;BME280;26591;43.264;26.940;2023-05-11T06:53:44;99622.44;;;13.12;62.42
40872;BME280;26591;43.264;26.940;2023-05-11T06:56:09;99624.41;;;13.10;62.84
40872;BME280;26591;43.264;26.940;2023-05-11T06:58:35;99644.53;;;12.79;63.99
40872;BME280;26591;43.264;26.940;2023-05-11T07:01:00;99626.44;;;12.75;64.22
40872;BME280;26591;43.264;26.940;2023-05-11T07:03:29;99624.06;;;13.38;63.72
40872;BME280;26591;43.264;26.940;2023-05-11T07:05:54;99623.53;;;13.59;63.09
40872;BME280;26591;43.264;26.940;2023-05-11T07:08:20;99625.72;;;13.47;61.23
40872;BME280;26591;43.264;26.940;2023-05-11T07:10:45;99626.59;;;12.73;62.94
40872;BME280;26591;43.264;26.940;2023-05-11T07:13:11;99627.25;;;12.92;63.65
40872;BME280;26591;43.264;26.940;2023-05-11T07:15:36;99635.56;;;12.72;63.36
40872;BME280;26591;43.264;26.940;2023-05-11T07:18:02;99625.59;;;12.58;63.23
40872;BME280;26591;43.264;26.940;2023-05-11T07:20:27;99622.69;;;13.58;62.28
40872;BME280;26591;43.264;26.940;2023-05-11T07:22:59;99633.03;;;13.93;61.28
40872;BME280;26591;43.264;26.940;2023-05-11T07:25:25;99628.63;;;14.09;59.98
40872;BME280;26591;43.264;26.940;2023-05-11T07:27:50;99632.84;;;13.47;59.13
40872;BME280;26591;43.264;26.940;2023-05-11T07:30:16;99631.94;;;12.98;60.47
40872;BME280;26591;43.264;26.940;2023-05-11T07:32:41;99635.03;;;13.26;60.01
40872;BME280;26591;43.264;26.940;2023-05-11T07:35:07;99644.53;;;12.79;59.86
40872;BME280;26591;43.264;26.940;2023-05-11T07:37:33;99637.72;;;12.69;59.11
40872;BME280;26591;43.264;26.940;2023-05-11T07:39:59;99637.41;;;13.05;56.75
40872;BME280;26591;43.264;26.940;2023-05-11T07:42:24;99635.72;;;13.20;57.86
40872;BME280;26591;43.264;26.940;2023-05-11T07:44:50;99633.41;;;13.17;58.34
40872;BME280;26591;43.264;26.940;2023-05-11T07:47:16;99636.88;;;13.18;58.20
40872;BME280;26591;43.264;26.940;2023-05-11T07:49:44;99630.09;;;12.98;57.76
40872;BME280;26591;43.264;26.940;2023-05-11T07:52:12;99632.75;;;12.49;58.62
40872;BME280;26591;43.264;26.940;2023-05-11T07:54:37;99635.06;;;12.69;59.10
40872;BME280;26591;43.264;26.940;2023-05-11T07:57:04;99636.06;;;13.01;57.51
40872;BME280;26591;43.264;26.940;2023-05-11T07:59:36;99627.44;;;12.82;56.93
40872;BME280;26591;43.264;26.940;2023-05-11T08:02:05;99632.25;;;12.87;57.29
40872;BME280;26591;43.264;26.940;2023-05-11T08:04:31;99627.09;;;12.69;58.65
40872;BME280;26591;43.264;26.940;2023-05-11T08:06:57;99630.41;;;12.46;59.89
40872;BME280;26591;43.264;26.940;2023-05-11T08:09:23;99628.41;;;12.97;59.16
40872;BME280;26591;43.264;26.940;2023-05-11T08:11:48;99628.44;;;12.89;59.06
40872;BME280;26591;43.264;26.940;2023-05-11T08:14:20;99650.66;;;12.80;57.89
40872;BME280;26591;43.264;26.940;2023-05-11T08:16:45;99637.06;;;12.66;58.61
40872;BME280;26591;43.264;26.940;2023-05-11T08:19:12;99637.56;;;12.62;57.13
40872;BME280;26591;43.264;26.940;2023-05-11T08:21:38;99647.34;;;12.61;57.99
40872;BME280;26591;43.264;26.940;2023-05-11T08:24:04;99633.41;;;13.01;57.95
40872;BME280;26591;43.264;26.940;2023-05-11T08:26:30;99643.66;;;13.37;57.27
40872;BME280;26591;43.264;26.940;2023-05-11T08:28:57;99630.41;;;13.12;57.55
40872;BME280;26591;43.264;26.940;2023-05-11T08:31:22;99632.25;;;12.95;56.93
40872;BME280;26591;43.264;26.940;2023-05-11T08:33:48;99620.56;;;13.37;56.43
40872;BME280;26591;43.264;26.940;2023-05-11T08:36:14;99646.63;;;13.67;55.80
40872;BME280;26591;43.264;26.940;2023-05-11T08:38:40;99619.59;;;13.30;54.50
40872;BME280;26591;43.264;26.940;2023-05-11T08:41:05;99617.78;;;13.87;53.97
40872;BME280;26591;43.264;26.940;2023-05-11T08:43:34;99618.28;;;14.14;53.18
40872;BME280;26591;43.264;26.940;2023-05-11T08:46:03;99605.78;;;14.46;53.79
40872;BME280;26591;43.264;26.940;2023-05-11T08:48:29;99612.81;;;14.85;49.48
40872;BME280;26591;43.264;26.940;2023-05-11T08:50:58;99610.69;;;14.34;49.83
40872;BME280;26591;43.264;26.940;2023-05-11T08:53:23;99604.91;;;14.77;48.86
40872;BME280;26591;43.264;26.940;2023-05-11T08:55:49;99612.72;;;14.78;48.61
40872;BME280;26591;43.264;26.940;2023-05-11T08:58:16;99602.88;;;14.56;47.93
40872;BME280;26591;43.264;26.940;2023-05-11T09:00:49;99604.00;;;14.07;50.31
40872;BME280;26591;43.264;26.940;2023-05-11T09:03:20;99594.25;;;14.30;50.47
40872;BME280;26591;43.264;26.940;2023-05-11T09:05:47;99602.31;;;14.69;49.13
40872;BME280;26591;43.264;26.940;2023-05-11T09:08:14;99589.59;;;14.24;50.08
40872;BME280;26591;43.264;26.940;2023-05-11T09:10:42;99597.59;;;14.47;50.59
40872;BME280;26591;43.264;26.940;2023-05-11T09:13:08;99597.97;;;14.44;52.51
40872;BME280;26591;43.264;26.940;2023-05-11T09:15:34;99602.16;;;14.85;49.47
40872;BME280;26591;43.264;26.940;2023-05-11T09:18:00;99582.16;;;14.66;48.01
40872;BME280;26591;43.264;26.940;2023-05-11T09:20:28;99593.13;;;15.09;47.08
40872;BME280;26591;43.264;26.940;2023-05-11T09:22:56;99590.09;;;14.74;46.83
40872;BME280;26591;43.264;26.940;2023-05-11T09:25:22;99581.94;;;15.29;46.90
40872;BME280;26591;43.264;26.940;2023-05-11T09:27:48;99587.06;;;15.31;48.15
40872;BME280;26591;43.264;26.940;2023-05-11T09:30:18;99572.44;;;15.26;47.63
40872;BME280;26591;43.264;26.940;2023-05-11T09:35:26;99582.72;;;15.00;47.31
40872;BME280;26591;43.264;26.940;2023-05-11T09:40:27;99568.28;;;14.94;47.25
40872;BME280;26591;43.264;26.940;2023-05-11T09:42:53;99569.84;;;14.88;46.68
40872;BME280;26591;43.264;26.940;2023-05-11T09:45:38;99567.00;;;15.20;46.48
40872;BME280;26591;43.264;26.940;2023-05-11T09:48:28;99558.81;;;15.06;47.15
40872;BME280;26591;43.264;26.940;2023-05-11T09:51:01;99572.06;;;15.00;46.68
40872;BME280;26591;43.264;26.940;2023-05-11T09:53:44;99565.56;;;14.79;46.63
40872;BME280;26591;43.264;26.940;2023-05-11T09:56:13;99572.75;;;14.78;48.62
40872;BME280;26591;43.264;26.940;2023-05-11T09:58:46;99563.50;;;14.66;49.46
40872;BME280;26591;43.264;26.940;2023-05-11T10:01:12;99562.84;;;15.02;48.26
40872;BME280;26591;43.264;26.940;2023-05-11T10:03:58;99572.28;;;15.28;48.57
40872;BME280;26591;43.264;26.940;2023-05-11T10:06:25;99569.19;;;14.86;48.78
40872;BME280;26591;43.264;26.940;2023-05-11T10:08:51;99566.00;;;14.68;48.79
40872;BME280;26591;43.264;26.940;2023-05-11T10:11:20;99567.22;;;14.80;49.25
40872;BME280;26591;43.264;26.940;2023-05-11T10:13:46;99568.06;;;14.80;48.96
40872;BME280;26591;43.264;26.940;2023-05-11T10:16:15;99558.97;;;14.52;48.96
40872;BME280;26591;43.264;26.940;2023-05-11T10:18:41;99541.34;;;14.65;49.19
40872;BME280;26591;43.264;26.940;2023-05-11T10:21:09;99552.31;;;15.24;48.41
40872;BME280;26591;43.264;26.940;2023-05-11T10:23:35;99570.22;;;15.15;47.43
40872;BME280;26591;43.264;26.940;2023-05-11T10:26:03;99547.88;;;15.01;47.43
40872;BME280;26591;43.264;26.940;2023-05-11T10:28:35;99550.00;;;15.06;47.28
40872;BME280;26591;43.264;26.940;2023-05-11T10:31:02;99554.69;;;15.04;47.36
40872;BME280;26591;43.264;26.940;2023-05-11T10:33:29;99549.91;;;14.99;47.37
40872;BME280;26591;43.264;26.940;2023-05-11T10:35:55;99547.88;;;14.86;46.74
40872;BME280;26591;43.264;26.940;2023-05-11T10:38:21;99546.03;;;14.63;45.43
40872;BME280;26591;43.264;26.940;2023-05-11T10:40:50;99539.69;;;14.88;46.32
40872;BME280;26591;43.264;26.940;2023-05-11T10:49:05;99543.19;;;14.65;46.69
40872;BME280;26591;43.264;26.940;2023-05-11T10:51:50;99541.44;;;14.57;46.54
40872;BME280;26591;43.264;26.940;2023-05-11T11:02:22;99543.31;;;15.25;45.91
40872;BME280;26591;43.264;26.940;2023-05-11T11:04:49;99535.94;;;15.27;45.60
40872;BME280;26591;43.264;26.940;2023-05-11T11:07:16;99537.53;;;15.88;45.63
40872;BME280;26591;43.264;26.940;2023-05-11T11:10:00;99542.94;;;16.16;43.18
40872;BME280;26591;43.264;26.940;2023-05-11T11:12:29;99535.00;;;16.23;44.22
40872;BME280;26591;43.264;26.940;2023-05-11T11:15:02;99543.06;;;15.71;45.30
40872;BME280;26591;43.264;26.940;2023-05-11T11:17:32;99540.88;;;15.00;46.82
40872;BME280;26591;43.264;26.940;2023-05-11T11:20:00;99537.41;;;14.61;47.82
40872;BME280;26591;43.264;26.940;2023-05-11T11:25:02;99537.78;;;15.41;44.63
40872;BME280;26591;43.264;26.940;2023-05-11T11:30:24;99539.84;;;15.61;43.34
40872;BME280;26591;43.264;26.940;2023-05-11T11:33:38;99555.13;;;15.67;43.87
40872;BME280;26591;43.264;26.940;2023-05-11T11:38:18;99533.59;;;15.69;44.51
40872;BME280;26591;43.264;26.940;2023-05-11T11:40:45;99531.69;;;15.63;44.48
40872;BME280;26591;43.264;26.940;2023-05-11T11:43:16;99560.66;;;15.66;44.12
40872;BME280;26591;43.264;26.940;2023-05-11T11:45:59;99550.63;;;15.53;44.59
40872;BME280;26591;43.264;26.940;2023-05-11T11:48:31;99526.44;;;15.54;45.30
40872;BME280;26591;43.264;26.940;2023-05-11T11:56:35;99519.53;;;15.97;42.66
40872;BME280;26591;43.264;26.940;2023-05-11T12:01:18;99525.28;;;15.94;43.52
40872;BME280;26591;43.264;26.940;2023-05-11T12:03:46;99511.75;;;15.80;43.44
40872;BME280;26591;43.264;26.940;2023-05-11T12:06:20;99512.94;;;15.78;41.87
40872;BME280;26591;43.264;26.940;2023-05-11T12:08:48;99509.47;;;15.77;43.42
40872;BME280;26591;43.264;26.940;2023-05-11T12:11:16;99509.31;;;16.22;43.81
40872;BME280;26591;43.264;26.940;2023-05-11T12:13:42;99511.94;;;15.94;45.68
40872;BME280;26591;43.264;26.940;2023-05-11T12:16:13;99514.66;;;16.00;45.36
40872;BME280;26591;43.264;26.940;2023-05-11T12:18:40;99500.91;;;15.67;43.29
40872;BME280;26591;43.264;26.940;2023-05-11T12:21:06;99512.81;;;15.64;44.79
40872;BME280;26591;43.264;26.940;2023-05-11T12:23:32;99511.59;;;15.67;44.66
40872;BME280;26591;43.264;26.940;2023-05-11T12:26:05;99491.53;;;15.71;45.54
40872;BME280;26591;43.264;26.940;2023-05-11T12:28:32;99481.56;;;15.80;45.43
40872;BME280;26591;43.264;26.940;2023-05-11T12:30:58;99487.84;;;15.87;44.30
40872;BME280;26591;43.264;26.940;2023-05-11T12:33:29;99494.28;;;15.78;45.08
40872;BME280;26591;43.264;26.940;2023-05-11T12:35:55;99488.28;;;15.76;45.58
40872;BME280;26591;43.264;26.940;2023-05-11T12:38:21;99491.47;;;15.64;45.50
40872;BME280;26591;43.264;26.940;2023-05-11T12:40:48;99499.06;;;15.31;45.50
40872;BME280;26591;43.264;26.940;2023-05-11T12:43:30;99476.56;;;14.88;45.74
40872;BME280;26591;43.264;26.940;2023-05-11T12:45:55;99478.56;;;14.71;46.36
40872;BME280;26591;43.264;26.940;2023-05-11T12:48:21;99495.03;;;15.05;45.62
40872;BME280;26591;43.264;26.940;2023-05-11T12:50:49;99482.50;;;15.35;45.75
40872;BME280;26591;43.264;26.940;2023-05-11T12:53:16;99501.19;;;15.05;46.17
40872;BME280;26591;43.264;26.940;2023-05-11T12:55:42;99475.09;;;15.01;46.46
40872;BME280;26591;43.264;26.940;2023-05-11T12:58:15;99478.88;;;14.91;47.36
40872;BME280;26591;43.264;26.940;2023-05-11T13:01:08;99473.81;;;14.97;46.62
40872;BME280;26591;43.264;26.940;2023-05-11T13:03:35;99484.41;;;14.67;47.43
40872;BME280;26591;43.264;26.940;2023-05-11T13:06:10;99465.25;;;14.33;45.84
40872;BME280;26591;43.264;26.940;2023-05-11T13:08:45;99467.22;;;14.54;45.73
40872;BME280;26591;43.264;26.940;2023-05-11T13:11:17;99470.31;;;15.26;44.42
40872;BME280;26591;43.264;26.940;2023-05-11T13:13:43;99458.63;;;15.64;43.68
40872;BME280;26591;43.264;26.940;2023-05-11T13:16:09;99464.84;;;15.49;43.07
40872;BME280;26591;43.264;26.940;2023-05-11T13:18:34;99463.72;;;15.07;44.88
40872;BME280;26591;43.264;26.940;2023-05-11T13:21:05;99457.09;;;15.03;45.99
40872;BME280;26591;43.264;26.940;2023-05-11T13:23:30;99460.00;;;15.23;44.14
40872;BME280;26591;43.264;26.940;2023-05-11T13:25:55;99465.06;;;15.18;45.10
40872;BME280;26591;43.264;26.940;2023-05-11T13:28:22;99451.34;;;15.21;45.65
40872;BME280;26591;43.264;26.940;2023-05-11T13:30:49;99484.66;;;14.95;44.50
40872;BME280;26591;43.264;26.940;2023-05-11T13:33:17;99458.09;;;15.02;46.58
40872;BME280;26591;43.264;26.940;2023-05-11T13:35:43;99468.94;;;15.15;45.73
40872;BME280;26591;43.264;26.940;2023-05-11T13:38:10;99462.03;;;15.21;45.66
40872;BME280;26591;43.264;26.940;2023-05-11T13:40:36;99463.97;;;15.12;46.20
40872;BME280;26591;43.264;26.940;2023-05-11T13:43:02;99457.22;;;15.31;46.13
40872;BME280;26591;43.264;26.940;2023-05-11T13:45:28;99462.63;;;15.38;47.00